sensor_id;sensor_type;location;lat;lon;timestamp;P1;durP1;ratioP1;P2;durP2;ratioP2
40150;SDS011;25866;52.420;10.640;2023-02-03T00:00:25;4.80;;;3.70;;
40150;SDS011;25866;52.420;10.640;2023-02-03T00:02:53;6.73;;;4.23;;
40150;SDS011;25866;52.420;10.640;2023-02-03T00:05:19;6.40;;;4.10;;
40150;SDS011;25866;52.420;10.640;2023-02-03T00:07:45;5.57;;;4.13;;
40150;SDS011;25866;52.420;10.640;2023-02-03T00:10:12;6.93;;;4.57;;
40150;SDS011;25866;52.420;10.640;2023-02-03T00:12:39;5.80;;;4.00;;
40150;SDS011;25866;52.420;10.640;2023-02-03T00:15:05;6.17;;;4.10;;
40150;SDS011;25866;52.420;10.640;2023-02-03T00:17:31;6.07;;;4.30;;
40150;SDS011;25866;52.420;10.640;2023-02-03T00:19:57;6.07;;;4.63;;
40150;SDS011;25866;52.420;10.640;2023-02-03T00:22:24;7.53;;;4.93;;
40150;SDS011;25866;52.420;10.640;2023-02-03T00:24:50;7.17;;;4.90;;
40150;SDS011;25866;52.420;10.640;2023-02-03T00:27:16;8.17;;;5.30;;
40150;SDS011;25866;52.420;10.640;2023-02-03T00:29:41;6.70;;;4.90;;
40150;SDS011;25866;52.420;10.640;2023-02-03T00:32:08;7.73;;;5.10;;
40150;SDS011;25866;52.420;10.640;2023-02-03T00:34:34;10.17;;;5.50;;
40150;SDS011;25866;52.420;10.640;2023-02-03T00:36:59;8.30;;;5.30;;
40150;SDS011;25866;52.420;10.640;2023-02-03T00:39:25;8.53;;;5.50;;
40150;SDS011;25866;52.420;10.640;2023-02-03T00:41:53;6.90;;;5.23;;
40150;SDS011;25866;52.420;10.640;2023-02-03T00:44:19;7.80;;;5.80;;
40150;SDS011;25866;52.420;10.640;2023-02-03T00:46:44;9.50;;;5.90;;
40150;SDS011;25866;52.420;10.640;2023-02-03T00:49:10;10.63;;;6.60;;
40150;SDS011;25866;52.420;10.640;2023-02-03T00:54:04;10.60;;;6.37;;
40150;SDS011;25866;52.420;10.640;2023-02-03T00:56:30;10.47;;;6.87;;
40150;SDS011;25866;52.420;10.640;2023-02-03T00:58:56;10.47;;;7.43;;
40150;SDS011;25866;52.420;10.640;2023-02-03T01:01:24;12.57;;;8.07;;
40150;SDS011;25866;52.420;10.640;2023-02-03T01:03:49;13.97;;;8.13;;
40150;SDS011;25866;52.420;10.640;2023-02-03T01:06:19;11.67;;;7.87;;
40150;SDS011;25866;52.420;10.640;2023-02-03T01:08:45;16.87;;;9.83;;
40150;SDS011;25866;52.420;10.640;2023-02-03T01:11:20;14.03;;;9.27;;
40150;SDS011;25866;52.420;10.640;2023-02-03T01:13:52;15.17;;;9.87;;
40150;SDS011;25866;52.420;10.640;2023-02-03T01:16:25;16.67;;;10.13;;
40150;SDS011;25866;52.420;10.640;2023-02-03T01:18:54;15.30;;;9.67;;
40150;SDS011;25866;52.420;10.640;2023-02-03T01:21:24;19.47;;;11.17;;
40150;SDS011;25866;52.420;10.640;2023-02-03T01:23:51;19.33;;;10.73;;
40150;SDS011;25866;52.420;10.640;2023-02-03T01:26:18;16.73;;;10.90;;
40150;SDS011;25866;52.420;10.640;2023-02-03T01:28:52;21.57;;;11.70;;
40150;SDS011;25866;52.420;10.640;2023-02-03T01:31:25;22.07;;;12.20;;
40150;SDS011;25866;52.420;10.640;2023-02-03T01:33:57;21.27;;;12.70;;
40150;SDS011;25866;52.420;10.640;2023-02-03T01:36:24;29.10;;;14.80;;
40150;SDS011;25866;52.420;10.640;2023-02-03T01:38:51;26.07;;;14.17;;
40150;SDS011;25866;52.420;10.640;2023-02-03T01:41:18;28.97;;;15.47;;
40150;SDS011;25866;52.420;10.640;2023-02-03T01:43:48;32.33;;;15.40;;
40150;SDS011;25866;52.420;10.640;2023-02-03T01:49:10;35.50;;;18.53;;
40150;SDS011;25866;52.420;10.640;2023-02-03T01:51:41;42.80;;;20.23;;
40150;SDS011;25866;52.420;10.640;2023-02-03T01:54:10;45.90;;;21.87;;
40150;SDS011;25866;52.420;10.640;2023-02-03T01:56:39;45.90;;;21.10;;
40150;SDS011;25866;52.420;10.640;2023-02-03T01:59:10;44.20;;;23.70;;
40150;SDS011;25866;52.420;10.640;2023-02-03T02:01:37;45.03;;;23.17;;
40150;SDS011;25866;52.420;10.640;2023-02-03T02:04:03;40.47;;;22.10;;
40150;SDS011;25866;52.420;10.640;2023-02-03T02:06:30;52.07;;;23.53;;
40150;SDS011;25866;52.420;10.640;2023-02-03T02:08:56;44.33;;;23.83;;
40150;SDS011;25866;52.420;10.640;2023-02-03T02:11:25;43.70;;;22.93;;
40150;SDS011;25866;52.420;10.640;2023-02-03T02:13:52;43.93;;;21.93;;
40150;SDS011;25866;52.420;10.640;2023-02-03T02:22:16;37.53;;;21.67;;
40150;SDS011;25866;52.420;10.640;2023-02-03T02:41:30;25.90;;;17.77;;
40150;SDS011;25866;52.420;10.640;2023-02-03T02:44:22;31.50;;;17.07;;
40150;SDS011;25866;52.420;10.640;2023-02-03T02:46:55;26.67;;;16.47;;
40150;SDS011;25866;52.420;10.640;2023-02-03T02:49:26;28.10;;;16.87;;
40150;SDS011;25866;52.420;10.640;2023-02-03T02:52:05;25.30;;;15.93;;
40150;SDS011;25866;52.420;10.640;2023-02-03T02:54:36;28.50;;;15.60;;
40150;SDS011;25866;52.420;10.640;2023-02-03T02:57:06;25.97;;;15.70;;
40150;SDS011;25866;52.420;10.640;2023-02-03T02:59:35;24.40;;;14.43;;
40150;SDS011;25866;52.420;10.640;2023-02-03T03:02:01;22.87;;;14.80;;
40150;SDS011;25866;52.420;10.640;2023-02-03T03:04:29;22.07;;;14.37;;
40150;SDS011;25866;52.420;10.640;2023-02-03T03:07:05;27.07;;;14.27;;
40150;SDS011;25866;52.420;10.640;2023-02-03T03:09:41;27.37;;;13.67;;
40150;SDS011;25866;52.420;10.640;2023-02-03T03:12:28;18.57;;;11.87;;
40150;SDS011;25866;52.420;10.640;2023-02-03T03:14:58;20.20;;;11.43;;
40150;SDS011;25866;52.420;10.640;2023-02-03T03:17:29;19.67;;;11.30;;
40150;SDS011;25866;52.420;10.640;2023-02-03T03:20:00;19.87;;;11.30;;
40150;SDS011;25866;52.420;10.640;2023-02-03T03:22:30;21.37;;;11.10;;
40150;SDS011;25866;52.420;10.640;2023-02-03T03:27:51;18.20;;;10.53;;
40150;SDS011;25866;52.420;10.640;2023-02-03T03:30:22;16.00;;;9.57;;
40150;SDS011;25866;52.420;10.640;2023-02-03T03:32:52;18.57;;;10.07;;
40150;SDS011;25866;52.420;10.640;2023-02-03T03:35:18;15.27;;;10.20;;
40150;SDS011;25866;52.420;10.640;2023-02-03T03:40:29;14.77;;;9.27;;
40150;SDS011;25866;52.420;10.640;2023-02-03T03:43:07;11.43;;;8.30;;
40150;SDS011;25866;52.420;10.640;2023-02-03T03:45:57;18.80;;;9.10;;
40150;SDS011;25866;52.420;10.640;2023-02-03T03:48:30;13.07;;;8.10;;
40150;SDS011;25866;52.420;10.640;2023-02-03T03:51:32;11.87;;;8.00;;
40150;SDS011;25866;52.420;10.640;2023-02-03T03:54:06;11.87;;;7.37;;
40150;SDS011;25866;52.420;10.640;2023-02-03T03:56:35;15.97;;;7.77;;
40150;SDS011;25866;52.420;10.640;2023-02-03T03:59:06;14.70;;;7.57;;
40150;SDS011;25866;52.420;10.640;2023-02-03T04:01:35;13.30;;;7.57;;
40150;SDS011;25866;52.420;10.640;2023-02-03T04:04:05;13.07;;;7.70;;
40150;SDS011;25866;52.420;10.640;2023-02-03T04:06:33;11.77;;;7.73;;
40150;SDS011;25866;52.420;10.640;2023-02-03T04:08:59;12.07;;;8.17;;
40150;SDS011;25866;52.420;10.640;2023-02-03T04:11:26;14.70;;;7.80;;
40150;SDS011;25866;52.420;10.640;2023-02-03T04:14:10;17.27;;;7.63;;
40150;SDS011;25866;52.420;10.640;2023-02-03T04:16:36;15.07;;;7.77;;
40150;SDS011;25866;52.420;10.640;2023-02-03T04:19:02;12.13;;;7.03;;
40150;SDS011;25866;52.420;10.640;2023-02-03T04:21:28;20.30;;;7.60;;
40150;SDS011;25866;52.420;10.640;2023-02-03T04:23:55;12.33;;;7.30;;
40150;SDS011;25866;52.420;10.640;2023-02-03T04:26:21;10.43;;;7.17;;
40150;SDS011;25866;52.420;10.640;2023-02-03T04:28:47;13.87;;;7.63;;
40150;SDS011;25866;52.420;10.640;2023-02-03T04:31:12;14.73;;;6.97;;
40150;SDS011;25866;52.420;10.640;2023-02-03T04:33:38;12.43;;;7.17;;
40150;SDS011;25866;52.420;10.640;2023-02-03T04:36:04;12.17;;;6.57;;
40150;SDS011;25866;52.420;10.640;2023-02-03T04:38:30;13.93;;;6.50;;
40150;SDS011;25866;52.420;10.640;2023-02-03T04:40:57;13.93;;;6.83;;
40150;SDS011;25866;52.420;10.640;2023-02-03T04:43:23;15.43;;;6.33;;
40150;SDS011;25866;52.420;10.640;2023-02-03T04:45:48;11.90;;;6.70;;
40150;SDS011;25866;52.420;10.640;2023-02-03T04:48:14;13.27;;;7.23;;
40150;SDS011;25866;52.420;10.640;2023-02-03T04:50:40;12.23;;;6.60;;
40150;SDS011;25866;52.420;10.640;2023-02-03T04:53:06;14.70;;;6.23;;
40150;SDS011;25866;52.420;10.640;2023-02-03T04:55:32;15.53;;;6.30;;
40150;SDS011;25866;52.420;10.640;2023-02-03T04:57:58;11.27;;;5.87;;
40150;SDS011;25866;52.420;10.640;2023-02-03T05:00:25;19.13;;;6.53;;
40150;SDS011;25866;52.420;10.640;2023-02-03T05:02:51;11.40;;;5.90;;
40150;SDS011;25866;52.420;10.640;2023-02-03T05:05:17;8.80;;;6.20;;
40150;SDS011;25866;52.420;10.640;2023-02-03T05:07:43;16.00;;;6.53;;
40150;SDS011;25866;52.420;10.640;2023-02-03T05:10:09;14.03;;;5.83;;
40150;SDS011;25866;52.420;10.640;2023-02-03T05:12:35;10.23;;;5.60;;
40150;SDS011;25866;52.420;10.640;2023-02-03T05:15:01;8.87;;;5.60;;
40150;SDS011;25866;52.420;10.640;2023-02-03T05:17:27;12.20;;;6.43;;
40150;SDS011;25866;52.420;10.640;2023-02-03T05:19:53;13.23;;;5.77;;
40150;SDS011;25866;52.420;10.640;2023-02-03T05:22:18;9.67;;;5.87;;
40150;SDS011;25866;52.420;10.640;2023-02-03T05:24:44;11.47;;;6.03;;
40150;SDS011;25866;52.420;10.640;2023-02-03T05:27:10;11.97;;;6.10;;
40150;SDS011;25866;52.420;10.640;2023-02-03T05:29:36;13.27;;;6.07;;
40150;SDS011;25866;52.420;10.640;2023-02-03T05:32:02;9.50;;;5.53;;
40150;SDS011;25866;52.420;10.640;2023-02-03T05:34:27;13.17;;;6.20;;
40150;SDS011;25866;52.420;10.640;2023-02-03T05:36:53;12.23;;;5.87;;
40150;SDS011;25866;52.420;10.640;2023-02-03T05:39:19;13.27;;;6.23;;
40150;SDS011;25866;52.420;10.640;2023-02-03T05:41:45;9.27;;;6.20;;
40150;SDS011;25866;52.420;10.640;2023-02-03T05:44:16;13.53;;;6.67;;
40150;SDS011;25866;52.420;10.640;2023-02-03T05:46:43;10.93;;;6.33;;
40150;SDS011;25866;52.420;10.640;2023-02-03T05:49:09;9.37;;;5.90;;
40150;SDS011;25866;52.420;10.640;2023-02-03T05:51:35;13.47;;;5.83;;
40150;SDS011;25866;52.420;10.640;2023-02-03T05:54:00;9.47;;;5.83;;
40150;SDS011;25866;52.420;10.640;2023-02-03T05:56:26;13.57;;;5.73;;
40150;SDS011;25866;52.420;10.640;2023-02-03T05:58:52;11.70;;;5.67;;
40150;SDS011;25866;52.420;10.640;2023-02-03T06:01:18;13.33;;;6.23;;
40150;SDS011;25866;52.420;10.640;2023-02-03T06:03:44;10.20;;;5.60;;
40150;SDS011;25866;52.420;10.640;2023-02-03T06:06:10;10.70;;;5.17;;
40150;SDS011;25866;52.420;10.640;2023-02-03T06:08:36;11.47;;;6.03;;
40150;SDS011;25866;52.420;10.640;2023-02-03T06:11:02;9.67;;;5.33;;
40150;SDS011;25866;52.420;10.640;2023-02-03T06:13:29;10.73;;;5.57;;
40150;SDS011;25866;52.420;10.640;2023-02-03T06:15:55;16.17;;;5.50;;
40150;SDS011;25866;52.420;10.640;2023-02-03T06:18:21;9.70;;;5.23;;
40150;SDS011;25866;52.420;10.640;2023-02-03T06:20:47;11.33;;;5.67;;
40150;SDS011;25866;52.420;10.640;2023-02-03T06:23:13;11.77;;;4.97;;
40150;SDS011;25866;52.420;10.640;2023-02-03T06:25:41;9.23;;;4.77;;
40150;SDS011;25866;52.420;10.640;2023-02-03T06:28:07;8.17;;;4.60;;
40150;SDS011;25866;52.420;10.640;2023-02-03T06:30:33;8.67;;;4.93;;
40150;SDS011;25866;52.420;10.640;2023-02-03T06:32:59;15.30;;;5.43;;
40150;SDS011;25866;52.420;10.640;2023-02-03T06:35:25;12.80;;;4.57;;
40150;SDS011;25866;52.420;10.640;2023-02-03T06:37:50;11.37;;;4.60;;
40150;SDS011;25866;52.420;10.640;2023-02-03T06:40:16;11.47;;;5.03;;
40150;SDS011;25866;52.420;10.640;2023-02-03T06:42:46;10.93;;;4.70;;
40150;SDS011;25866;52.420;10.640;2023-02-03T06:45:12;8.60;;;4.60;;
40150;SDS011;25866;52.420;10.640;2023-02-03T06:47:42;12.07;;;5.27;;
40150;SDS011;25866;52.420;10.640;2023-02-03T06:50:10;9.47;;;5.37;;
40150;SDS011;25866;52.420;10.640;2023-02-03T06:52:38;15.87;;;5.40;;
40150;SDS011;25866;52.420;10.640;2023-02-03T06:55:04;11.53;;;5.07;;
40150;SDS011;25866;52.420;10.640;2023-02-03T06:57:31;12.50;;;5.10;;
40150;SDS011;25866;52.420;10.640;2023-02-03T06:59:57;8.97;;;5.00;;
40150;SDS011;25866;52.420;10.640;2023-02-03T07:02:23;14.57;;;4.93;;
40150;SDS011;25866;52.420;10.640;2023-02-03T07:04:49;9.97;;;4.77;;
40150;SDS011;25866;52.420;10.640;2023-02-03T07:07:15;8.17;;;5.03;;
40150;SDS011;25866;52.420;10.640;2023-02-03T07:09:41;11.73;;;5.10;;
40150;SDS011;25866;52.420;10.640;2023-02-03T07:12:07;13.50;;;4.77;;
40150;SDS011;25866;52.420;10.640;2023-02-03T07:14:34;9.17;;;4.50;;
40150;SDS011;25866;52.420;10.640;2023-02-03T07:17:00;6.67;;;4.80;;
40150;SDS011;25866;52.420;10.640;2023-02-03T07:19:27;10.13;;;4.23;;
40150;SDS011;25866;52.420;10.640;2023-02-03T07:21:53;11.10;;;4.77;;
40150;SDS011;25866;52.420;10.640;2023-02-03T07:24:19;10.73;;;4.93;;
40150;SDS011;25866;52.420;10.640;2023-02-03T07:26:45;11.90;;;4.10;;
40150;SDS011;25866;52.420;10.640;2023-02-03T07:29:11;6.53;;;4.17;;
40150;SDS011;25866;52.420;10.640;2023-02-03T07:31:37;5.60;;;3.83;;
40150;SDS011;25866;52.420;10.640;2023-02-03T07:34:03;6.67;;;3.90;;
40150;SDS011;25866;52.420;10.640;2023-02-03T07:36:30;8.13;;;4.43;;
40150;SDS011;25866;52.420;10.640;2023-02-03T07:38:57;5.33;;;3.63;;
40150;SDS011;25866;52.420;10.640;2023-02-03T07:41:22;11.27;;;4.13;;
40150;SDS011;25866;52.420;10.640;2023-02-03T07:43:48;7.43;;;4.27;;
40150;SDS011;25866;52.420;10.640;2023-02-03T07:46:14;8.80;;;3.80;;
40150;SDS011;25866;52.420;10.640;2023-02-03T07:48:40;7.67;;;4.00;;
40150;SDS011;25866;52.420;10.640;2023-02-03T07:51:06;5.43;;;3.80;;
40150;SDS011;25866;52.420;10.640;2023-02-03T07:53:32;6.37;;;3.67;;
40150;SDS011;25866;52.420;10.640;2023-02-03T07:55:58;5.40;;;3.83;;
40150;SDS011;25866;52.420;10.640;2023-02-03T07:58:28;9.60;;;3.50;;
40150;SDS011;25866;52.420;10.640;2023-02-03T08:00:55;5.13;;;3.43;;
40150;SDS011;25866;52.420;10.640;2023-02-03T08:03:23;4.30;;;3.37;;
40150;SDS011;25866;52.420;10.640;2023-02-03T08:05:49;6.67;;;3.40;;
40150;SDS011;25866;52.420;10.640;2023-02-03T08:08:16;9.37;;;3.17;;
40150;SDS011;25866;52.420;10.640;2023-02-03T08:10:42;5.70;;;3.47;;
40150;SDS011;25866;52.420;10.640;2023-02-03T08:13:07;5.43;;;3.10;;
40150;SDS011;25866;52.420;10.640;2023-02-03T08:15:34;4.73;;;2.90;;
40150;SDS011;25866;52.420;10.640;2023-02-03T08:18:00;5.47;;;3.23;;
40150;SDS011;25866;52.420;10.640;2023-02-03T08:20:26;5.90;;;2.73;;
40150;SDS011;25866;52.420;10.640;2023-02-03T08:22:52;3.77;;;3.10;;
40150;SDS011;25866;52.420;10.640;2023-02-03T08:25:18;4.07;;;3.37;;
40150;SDS011;25866;52.420;10.640;2023-02-03T08:27:44;8.33;;;3.23;;
40150;SDS011;25866;52.420;10.640;2023-02-03T08:30:10;3.60;;;3.23;;
40150;SDS011;25866;52.420;10.640;2023-02-03T08:32:37;5.03;;;3.40;;
40150;SDS011;25866;52.420;10.640;2023-02-03T08:35:05;6.20;;;3.70;;
40150;SDS011;25866;52.420;10.640;2023-02-03T08:37:32;7.63;;;3.73;;
40150;SDS011;25866;52.420;10.640;2023-02-03T08:39:58;9.43;;;4.10;;
40150;SDS011;25866;52.420;10.640;2023-02-03T08:42:24;7.73;;;4.20;;
40150;SDS011;25866;52.420;10.640;2023-02-03T08:44:50;9.40;;;4.60;;
40150;SDS011;25866;52.420;10.640;2023-02-03T08:47:16;7.93;;;5.10;;
40150;SDS011;25866;52.420;10.640;2023-02-03T08:49:42;7.53;;;5.00;;
40150;SDS011;25866;52.420;10.640;2023-02-03T08:52:10;9.97;;;5.07;;
40150;SDS011;25866;52.420;10.640;2023-02-03T08:54:37;12.30;;;4.70;;
40150;SDS011;25866;52.420;10.640;2023-02-03T08:57:03;9.07;;;5.00;;
40150;SDS011;25866;52.420;10.640;2023-02-03T08:59:30;9.17;;;5.13;;
40150;SDS011;25866;52.420;10.640;2023-02-03T09:02:00;11.10;;;5.40;;
40150;SDS011;25866;52.420;10.640;2023-02-03T09:04:27;11.40;;;5.57;;
40150;SDS011;25866;52.420;10.640;2023-02-03T09:06:54;8.80;;;5.03;;
40150;SDS011;25866;52.420;10.640;2023-02-03T09:09:20;8.37;;;4.87;;
40150;SDS011;25866;52.420;10.640;2023-02-03T09:14:19;9.20;;;5.27;;
40150;SDS011;25866;52.420;10.640;2023-02-03T09:16:45;13.03;;;5.27;;
40150;SDS011;25866;52.420;10.640;2023-02-03T09:19:11;13.73;;;5.40;;
40150;SDS011;25866;52.420;10.640;2023-02-03T09:21:37;9.37;;;5.27;;
40150;SDS011;25866;52.420;10.640;2023-02-03T09:24:03;11.60;;;5.27;;
40150;SDS011;25866;52.420;10.640;2023-02-03T09:26:29;8.37;;;5.10;;
40150;SDS011;25866;52.420;10.640;2023-02-03T09:28:55;13.40;;;5.40;;
40150;SDS011;25866;52.420;10.640;2023-02-03T09:31:21;9.90;;;4.83;;
40150;SDS011;25866;52.420;10.640;2023-02-03T09:33:47;11.97;;;5.10;;
40150;SDS011;25866;52.420;10.640;2023-02-03T09:36:13;9.27;;;4.60;;
40150;SDS011;25866;52.420;10.640;2023-02-03T09:38:39;13.50;;;4.77;;
40150;SDS011;25866;52.420;10.640;2023-02-03T09:46:59;6.77;;;3.90;;
40150;SDS011;25866;52.420;10.640;2023-02-03T09:52:01;11.17;;;4.27;;
40150;SDS011;25866;52.420;10.640;2023-02-03T09:56:59;9.27;;;3.67;;
40150;SDS011;25866;52.420;10.640;2023-02-03T09:59:28;11.73;;;4.20;;
40150;SDS011;25866;52.420;10.640;2023-02-03T10:02:20;9.37;;;4.07;;
40150;SDS011;25866;52.420;10.640;2023-02-03T10:10:40;10.83;;;3.17;;
40150;SDS011;25866;52.420;10.640;2023-02-03T10:18:51;16.20;;;3.80;;
40150;SDS011;25866;52.420;10.640;2023-02-03T10:21:36;7.87;;;3.23;;
40150;SDS011;25866;52.420;10.640;2023-02-03T10:24:16;12.77;;;3.83;;
40150;SDS011;25866;52.420;10.640;2023-02-03T10:26:45;12.03;;;3.30;;
40150;SDS011;25866;52.420;10.640;2023-02-03T10:29:58;7.67;;;2.90;;
40150;SDS011;25866;52.420;10.640;2023-02-03T10:32:07;10.40;;;3.40;;
40150;SDS011;25866;52.420;10.640;2023-02-03T10:34:34;9.60;;;2.30;;
40150;SDS011;25866;52.420;10.640;2023-02-03T10:42:07;9.77;;;1.57;;
40150;SDS011;25866;52.420;10.640;2023-02-03T10:44:37;6.80;;;1.43;;
40150;SDS011;25866;52.420;10.640;2023-02-03T10:47:14;3.73;;;1.10;;
40150;SDS011;25866;52.420;10.640;2023-02-03T10:49:46;6.27;;;1.47;;
40150;SDS011;25866;52.420;10.640;2023-02-03T10:52:25;6.87;;;1.53;;
40150;SDS011;25866;52.420;10.640;2023-02-03T10:54:51;6.83;;;1.73;;
40150;SDS011;25866;52.420;10.640;2023-02-03T10:57:18;8.47;;;1.50;;
40150;SDS011;25866;52.420;10.640;2023-02-03T10:59:45;7.07;;;1.47;;
40150;SDS011;25866;52.420;10.640;2023-02-03T11:02:24;9.03;;;1.57;;
40150;SDS011;25866;52.420;10.640;2023-02-03T11:07:35;4.57;;;1.20;;
40150;SDS011;25866;52.420;10.640;2023-02-03T11:10:01;15.00;;;3.10;;
40150;SDS011;25866;52.420;10.640;2023-02-03T11:12:27;11.87;;;2.00;;
40150;SDS011;25866;52.420;10.640;2023-02-03T11:14:53;7.20;;;2.07;;
40150;SDS011;25866;52.420;10.640;2023-02-03T11:17:19;8.50;;;2.00;;
40150;SDS011;25866;52.420;10.640;2023-02-03T11:19:48;10.73;;;2.17;;
40150;SDS011;25866;52.420;10.640;2023-02-03T11:22:29;12.73;;;2.03;;
40150;SDS011;25866;52.420;10.640;2023-02-03T11:24:55;10.23;;;2.00;;
40150;SDS011;25866;52.420;10.640;2023-02-03T11:27:22;5.87;;;1.63;;
40150;SDS011;25866;52.420;10.640;2023-02-03T11:29:54;10.07;;;2.30;;
40150;SDS011;25866;52.420;10.640;2023-02-03T11:32:39;18.53;;;2.60;;
40150;SDS011;25866;52.420;10.640;2023-02-03T11:35:17;19.27;;;3.40;;
40150;SDS011;25866;52.420;10.640;2023-02-03T11:37:49;16.37;;;2.30;;
40150;SDS011;25866;52.420;10.640;2023-02-03T11:40:26;15.60;;;2.43;;
40150;SDS011;25866;52.420;10.640;2023-02-03T11:53:17;18.60;;;2.70;;
40150;SDS011;25866;52.420;10.640;2023-02-03T12:06:08;21.33;;;3.10;;
40150;SDS011;25866;52.420;10.640;2023-02-03T12:11:33;15.70;;;2.83;;
40150;SDS011;25866;52.420;10.640;2023-02-03T12:14:16;16.30;;;3.40;;
40150;SDS011;25866;52.420;10.640;2023-02-03T12:22:30;22.70;;;3.93;;
40150;SDS011;25866;52.420;10.640;2023-02-03T12:31:01;23.47;;;3.83;;
40150;SDS011;25866;52.420;10.640;2023-02-03T12:33:34;21.17;;;3.57;;
40150;SDS011;25866;52.420;10.640;2023-02-03T12:38:43;19.00;;;3.20;;
40150;SDS011;25866;52.420;10.640;2023-02-03T12:41:25;19.60;;;3.77;;
40150;SDS011;25866;52.420;10.640;2023-02-03T12:44:28;18.07;;;2.93;;
40150;SDS011;25866;52.420;10.640;2023-02-03T12:50:38;18.57;;;3.30;;
40150;SDS011;25866;52.420;10.640;2023-02-03T12:53:13;18.83;;;3.93;;
40150;SDS011;25866;52.420;10.640;2023-02-03T12:58:27;15.13;;;3.63;;
40150;SDS011;25866;52.420;10.640;2023-02-03T13:04:17;15.13;;;2.87;;
40150;SDS011;25866;52.420;10.640;2023-02-03T13:09:24;21.30;;;3.40;;
40150;SDS011;25866;52.420;10.640;2023-02-03T13:12:04;18.27;;;3.50;;
40150;SDS011;25866;52.420;10.640;2023-02-03T13:14:51;16.73;;;3.23;;
40150;SDS011;25866;52.420;10.640;2023-02-03T13:17:36;17.50;;;2.50;;
40150;SDS011;25866;52.420;10.640;2023-02-03T13:20:13;13.30;;;3.03;;
40150;SDS011;25866;52.420;10.640;2023-02-03T13:22:43;20.70;;;3.53;;
40150;SDS011;25866;52.420;10.640;2023-02-03T13:25:16;17.13;;;2.63;;
40150;SDS011;25866;52.420;10.640;2023-02-03T13:28:14;13.53;;;2.80;;
40150;SDS011;25866;52.420;10.640;2023-02-03T13:34:01;15.63;;;2.80;;
40150;SDS011;25866;52.420;10.640;2023-02-03T13:39:42;15.33;;;2.20;;
40150;SDS011;25866;52.420;10.640;2023-02-03T13:42:33;17.53;;;2.97;;
40150;SDS011;25866;52.420;10.640;2023-02-03T13:46:05;15.53;;;2.83;;
40150;SDS011;25866;52.420;10.640;2023-02-03T13:48:22;15.27;;;2.70;;
40150;SDS011;25866;52.420;10.640;2023-02-03T13:51:00;11.50;;;2.43;;
40150;SDS011;25866;52.420;10.640;2023-02-03T13:53:30;16.57;;;3.40;;
40150;SDS011;25866;52.420;10.640;2023-02-03T13:56:01;20.70;;;2.87;;
40150;SDS011;25866;52.420;10.640;2023-02-03T13:58:29;18.30;;;2.83;;
40150;SDS011;25866;52.420;10.640;2023-02-03T14:03:59;14.10;;;3.07;;
40150;SDS011;25866;52.420;10.640;2023-02-03T14:09:23;16.73;;;2.13;;
40150;SDS011;25866;52.420;10.640;2023-02-03T14:12:19;16.10;;;2.57;;
40150;SDS011;25866;52.420;10.640;2023-02-03T19:05:12;21.43;;;3.70;;
40150;SDS011;25866;52.420;10.640;2023-02-03T19:07:38;25.43;;;4.27;;
40150;SDS011;25866;52.420;10.640;2023-02-03T19:10:03;16.30;;;3.03;;
40150;SDS011;25866;52.420;10.640;2023-02-03T19:12:30;27.07;;;3.90;;
40150;SDS011;25866;52.420;10.640;2023-02-03T19:14:56;21.17;;;3.13;;
40150;SDS011;25866;52.420;10.640;2023-02-03T19:17:22;22.63;;;4.20;;
40150;SDS011;25866;52.420;10.640;2023-02-03T19:19:48;23.87;;;3.50;;
40150;SDS011;25866;52.420;10.640;2023-02-03T19:22:14;16.37;;;3.80;;
40150;SDS011;25866;52.420;10.640;2023-02-03T19:24:39;27.20;;;4.67;;
40150;SDS011;25866;52.420;10.640;2023-02-03T19:27:05;19.93;;;3.87;;
40150;SDS011;25866;52.420;10.640;2023-02-03T19:29:31;18.73;;;2.90;;
40150;SDS011;25866;52.420;10.640;2023-02-03T19:31:58;18.47;;;3.43;;
40150;SDS011;25866;52.420;10.640;2023-02-03T19:34:25;22.70;;;3.20;;
40150;SDS011;25866;52.420;10.640;2023-02-03T19:36:51;12.43;;;3.10;;
40150;SDS011;25866;52.420;10.640;2023-02-03T19:39:17;22.93;;;3.53;;
40150;SDS011;25866;52.420;10.640;2023-02-03T19:41:45;21.03;;;3.50;;
40150;SDS011;25866;52.420;10.640;2023-02-03T19:44:12;17.60;;;3.47;;
40150;SDS011;25866;52.420;10.640;2023-02-03T19:46:41;17.83;;;3.53;;
40150;SDS011;25866;52.420;10.640;2023-02-03T19:49:11;19.80;;;3.63;;
40150;SDS011;25866;52.420;10.640;2023-02-03T19:51:39;20.70;;;3.30;;
40150;SDS011;25866;52.420;10.640;2023-02-03T19:54:06;21.93;;;3.07;;
40150;SDS011;25866;52.420;10.640;2023-02-03T19:56:36;21.10;;;3.70;;
40150;SDS011;25866;52.420;10.640;2023-02-03T19:59:02;14.10;;;3.57;;
40150;SDS011;25866;52.420;10.640;2023-02-03T20:01:28;22.53;;;3.20;;
40150;SDS011;25866;52.420;10.640;2023-02-03T20:03:54;23.93;;;3.60;;
40150;SDS011;25866;52.420;10.640;2023-02-03T20:06:23;24.63;;;3.50;;
40150;SDS011;25866;52.420;10.640;2023-02-03T20:08:50;24.57;;;3.87;;
40150;SDS011;25866;52.420;10.640;2023-02-03T20:11:16;33.10;;;4.43;;
40150;SDS011;25866;52.420;10.640;2023-02-03T20:13:44;21.17;;;3.53;;
40150;SDS011;25866;52.420;10.640;2023-02-03T20:16:10;13.57;;;3.10;;
40150;SDS011;25866;52.420;10.640;2023-02-03T20:18:36;25.00;;;3.60;;
40150;SDS011;25866;52.420;10.640;2023-02-03T20:21:02;26.20;;;4.17;;
40150;SDS011;25866;52.420;10.640;2023-02-03T20:23:29;21.80;;;3.83;;
40150;SDS011;25866;52.420;10.640;2023-02-03T20:25:55;26.83;;;3.60;;
40150;SDS011;25866;52.420;10.640;2023-02-03T20:28:22;21.17;;;3.40;;
40150;SDS011;25866;52.420;10.640;2023-02-03T20:30:54;22.37;;;3.80;;
40150;SDS011;25866;52.420;10.640;2023-02-03T20:33:25;18.97;;;3.17;;
40150;SDS011;25866;52.420;10.640;2023-02-03T20:35:52;22.40;;;3.57;;
40150;SDS011;25866;52.420;10.640;2023-02-03T20:38:17;17.30;;;3.27;;
40150;SDS011;25866;52.420;10.640;2023-02-03T20:40:43;20.63;;;3.77;;
40150;SDS011;25866;52.420;10.640;2023-02-03T20:43:20;21.93;;;3.00;;
40150;SDS011;25866;52.420;10.640;2023-02-03T20:45:47;20.00;;;3.63;;
40150;SDS011;25866;52.420;10.640;2023-02-03T20:48:16;17.67;;;4.37;;
40150;SDS011;25866;52.420;10.640;2023-02-03T20:50:44;18.03;;;3.83;;
40150;SDS011;25866;52.420;10.640;2023-02-03T20:53:21;16.33;;;3.17;;
40150;SDS011;25866;52.420;10.640;2023-02-03T20:55:49;20.40;;;2.80;;
40150;SDS011;25866;52.420;10.640;2023-02-03T20:58:25;21.17;;;3.47;;
40150;SDS011;25866;52.420;10.640;2023-02-03T21:00:56;23.27;;;3.93;;
40150;SDS011;25866;52.420;10.640;2023-02-03T21:03:27;20.80;;;3.47;;
40150;SDS011;25866;52.420;10.640;2023-02-03T21:06:16;19.13;;;3.60;;
40150;SDS011;25866;52.420;10.640;2023-02-03T21:08:47;19.30;;;4.57;;
40150;SDS011;25866;52.420;10.640;2023-02-03T21:11:21;24.53;;;3.80;;
40150;SDS011;25866;52.420;10.640;2023-02-03T21:14:25;15.70;;;3.17;;
40150;SDS011;25866;52.420;10.640;2023-02-03T21:17:25;19.67;;;3.07;;
40150;SDS011;25866;52.420;10.640;2023-02-03T21:20:15;17.70;;;3.83;;
40150;SDS011;25866;52.420;10.640;2023-02-03T21:23:13;19.30;;;3.20;;
40150;SDS011;25866;52.420;10.640;2023-02-03T21:26:31;20.77;;;3.27;;
40150;SDS011;25866;52.420;10.640;2023-02-03T21:29:23;24.47;;;4.27;;
40150;SDS011;25866;52.420;10.640;2023-02-03T21:32:33;17.40;;;3.87;;
40150;SDS011;25866;52.420;10.640;2023-02-03T21:38:26;13.97;;;2.60;;
40150;SDS011;25866;52.420;10.640;2023-02-03T21:41:15;14.03;;;3.33;;